createdAt,value
2022-09-06T00:00:03.427Z,67.32
2022-09-06T00:01:03.622Z,67.22
2022-09-06T00:02:02.658Z,67.02
2022-09-06T00:03:02.862Z,66.71
2022-09-06T00:04:03.134Z,66.31
2022-09-06T00:05:02.854Z,66.01
2022-09-06T00:06:03.202Z,65.31
2022-09-06T00:07:02.726Z,65.61
2022-09-06T00:08:03.337Z,65.21
2022-09-06T00:09:02.849Z,64.91
2022-09-06T00:10:02.730Z,65.01
2022-09-06T00:11:03.341Z,64.91
2022-09-06T00:12:03.265Z,65.31
2022-09-06T00:13:03.116Z,65.61
2022-09-06T00:14:02.979Z,65.21
2022-09-06T00:15:03.542Z,65.31
2022-09-06T00:16:03.436Z,65.91
2022-09-06T00:17:02.396Z,65.91
2022-09-06T00:18:02.959Z,67.32
2022-09-06T00:19:02.501Z,66.91
2022-09-06T00:20:02.401Z,66.91
2022-09-06T00:21:02.983Z,67.52
2022-09-06T00:22:02.695Z,68.12
2022-09-06T00:23:02.701Z,68.42
2022-09-06T00:24:02.672Z,67.61
2022-09-06T00:25:03.237Z,67.61
2022-09-06T00:26:02.839Z,66.91
2022-09-06T00:27:02.726Z,67.11
2022-09-06T00:28:03.290Z,67.52
2022-09-06T00:29:03.213Z,67.11
2022-09-06T00:30:03.112Z,67.42
2022-09-06T00:31:03.133Z,67.92
2022-09-06T00:32:03.061Z,69.02
2022-09-06T00:33:03.625Z,69.02
2022-09-06T00:34:03.327Z,69.42
2022-09-06T00:35:03.164Z,69.02
2022-09-06T00:36:03.682Z,68.42
2022-09-06T00:37:03.248Z,67.92
2022-09-06T00:38:03.541Z,67.42
2022-09-06T00:39:03.383Z,67.49
2022-09-06T00:40:03.464Z,67.69
2022-09-06T00:41:03.417Z,68.29
2022-09-06T00:42:03.116Z,67.99
2022-09-06T00:43:03.104Z,68.59
2022-09-06T00:44:03.359Z,70.19
2022-09-06T00:45:03.297Z,69.92
2022-09-06T00:46:03.546Z,70.43
2022-09-06T00:47:03.206Z,70.93
2022-09-06T00:48:03.157Z,70.83
2022-09-06T00:49:03.224Z,70.93
2022-09-06T00:50:03.565Z,70.73
2022-09-06T00:51:03.473Z,70.12
2022-09-06T00:52:03.334Z,71.93
2022-09-06T00:53:03.497Z,71.59
2022-09-06T00:54:03.502Z,71.50
2022-09-06T00:55:03.845Z,71.70
2022-09-06T00:56:03.331Z,72.40
2022-09-06T00:57:03.046Z,72.09
2022-09-06T00:58:03.446Z,72.00
2022-09-06T00:59:03.133Z,72.30
2022-09-06T01:00:03.028Z,74.01
2022-09-06T01:01:03.132Z,74.71
2022-09-06T01:02:02.314Z,74.51
2022-09-06T01:03:02.179Z,75.21
2022-09-06T01:04:01.983Z,76.21
2022-09-06T01:05:01.961Z,76.11
2022-09-06T01:06:02.535Z,76.01
2022-09-06T01:07:02.251Z,75.10
2022-09-06T01:08:02.203Z,75.60
2022-09-06T01:09:02.098Z,74.71
2022-09-06T01:10:02.046Z,74.01
2022-09-06T01:11:02.015Z,74.80
2022-09-06T01:12:02.672Z,74.51
2022-09-06T01:13:02.743Z,73.60
2022-09-06T01:14:02.730Z,73.20
2022-09-06T01:15:02.647Z,72.30
2022-09-06T01:16:02.691Z,72.40
2022-09-06T01:17:02.698Z,72.09
2022-09-06T01:18:02.900Z,71.30
2022-09-06T01:19:02.746Z,70.96
2022-09-06T01:20:02.590Z,73.20
2022-09-06T01:21:02.444Z,70.96
2022-09-06T01:22:03.057Z,70.66
2022-09-06T01:23:02.933Z,70.06
2022-09-06T01:24:02.809Z,69.86
2022-09-06T01:25:03.383Z,69.46
2022-09-06T01:26:03.128Z,71.46
2022-09-06T01:27:02.922Z,70.86
2022-09-06T01:28:02.781Z,71.16
2022-09-06T01:29:02.495Z,70.96
2022-09-06T01:30:03.040Z,70.36
2022-09-06T01:31:02.610Z,71.77
2022-09-06T01:32:03.116Z,70.76
2022-09-06T01:33:03.229Z,70.36
2022-09-06T01:34:03.243Z,71.66
2022-09-06T01:35:03.133Z,72.66
2022-09-06T01:36:03.068Z,72.56
2022-09-06T01:37:10.934Z,71.46
2022-09-06T01:38:02.802Z,70.96
2022-09-06T01:39:02.378Z,72.77
2022-09-06T01:40:03.137Z,73.57
2022-09-06T01:41:02.799Z,72.77
2022-09-06T01:42:02.498Z,71.36
2022-09-06T01:43:02.360Z,70.66
2022-09-06T01:44:02.225Z,69.86
2022-09-06T01:45:02.149Z,69.76
2022-09-06T01:46:02.737Z,69.56
2022-09-06T01:47:02.661Z,69.06
2022-09-06T01:48:03.266Z,68.96
2022-09-06T01:49:02.879Z,68.85
2022-09-06T01:50:03.245Z,69.56
2022-09-06T01:51:03.138Z,69.06
2022-09-06T01:52:02.626Z,69.26
2022-09-06T01:53:03.137Z,70.26
2022-09-06T01:54:03.109Z,69.66
2022-09-06T01:55:02.979Z,69.35
2022-09-06T01:56:02.840Z,69.46
2022-09-06T01:57:03.386Z,69.66
2022-09-06T01:58:03.258Z,69.35
2022-09-06T01:59:03.120Z,69.46
2022-09-06T02:00:03.674Z,69.66
2022-09-06T02:01:03.514Z,69.86
2022-09-06T02:02:02.141Z,70.26
2022-09-06T02:03:02.024Z,69.56
2022-09-06T02:04:02.557Z,69.66
2022-09-06T02:05:02.654Z,69.46
2022-09-06T02:06:02.433Z,68.96
2022-09-06T02:07:02.034Z,69.06
2022-09-06T02:08:01.906Z,68.85
2022-09-06T02:09:01.734Z,68.76
2022-09-06T02:10:01.657Z,70.26
2022-09-06T02:11:02.201Z,71.56
2022-09-06T02:12:02.490Z,71.90
2022-09-06T02:13:02.337Z,71.50
2022-09-06T02:14:02.206Z,72.40
2022-09-06T02:15:02.141Z,71.86
2022-09-06T02:16:02.075Z,72.16
2022-09-06T02:17:02.537Z,71.66
2022-09-06T02:18:02.927Z,71.59
2022-09-06T02:19:02.799Z,71.06
2022-09-06T02:20:02.854Z,71.26
2022-09-06T02:21:02.822Z,72.60
2022-09-06T02:22:02.490Z,71.26
2022-09-06T02:23:02.104Z,71.26
2022-09-06T02:24:01.972Z,71.80
2022-09-06T02:25:01.912Z,72.09
2022-09-06T02:26:02.438Z,71.59
2022-09-06T02:27:03.005Z,72.30
2022-09-06T02:28:02.816Z,74.10
2022-09-06T02:29:02.805Z,73.70
2022-09-06T02:30:02.682Z,73.50
2022-09-06T02:31:02.967Z,73.00
2022-09-06T02:32:02.783Z,74.01
2022-09-06T02:33:02.738Z,74.51
2022-09-06T02:34:02.579Z,74.60
2022-09-06T02:35:02.720Z,74.60
2022-09-06T02:36:02.669Z,74.90
2022-09-06T02:37:02.361Z,74.01
2022-09-06T02:38:02.152Z,73.20
2022-09-06T02:39:01.777Z,72.90
2022-09-06T02:40:01.762Z,72.40
2022-09-06T02:41:02.363Z,71.86
2022-09-06T02:42:02.565Z,71.96
2022-09-06T02:43:02.526Z,72.66
2022-09-06T02:44:02.368Z,72.36
2022-09-06T02:45:02.235Z,75.10
2022-09-06T02:46:02.432Z,75.07
2022-09-06T02:47:02.980Z,74.17
2022-09-06T02:48:02.863Z,74.77
2022-09-06T02:49:02.748Z,75.77
2022-09-06T02:50:02.593Z,75.57
2022-09-06T02:51:02.444Z,75.97
2022-09-06T02:52:02.104Z,75.77
2022-09-06T02:53:02.557Z,75.17
2022-09-06T02:54:02.413Z,74.27
2022-09-06T02:55:02.418Z,74.37
2022-09-06T02:56:02.361Z,75.17
2022-09-06T02:57:02.905Z,74.47
2022-09-06T02:58:02.440Z,74.07
2022-09-06T02:59:02.544Z,75.37
2022-09-06T03:00:02.415Z,75.47
2022-09-06T03:01:02.363Z,74.77
2022-09-06T03:02:02.519Z,74.17
2022-09-06T03:03:02.742Z,73.67
2022-09-06T03:04:02.712Z,73.16
2022-09-06T03:05:02.650Z,72.47
2022-09-06T03:06:02.746Z,72.36
2022-09-06T03:07:02.900Z,72.66
2022-09-06T03:08:02.916Z,72.97
2022-09-06T03:09:02.875Z,72.16
2022-09-06T03:10:03.113Z,71.66
2022-09-06T03:11:03.059Z,71.36
2022-09-06T03:12:03.072Z,71.36
2022-09-06T03:13:02.939Z,71.26
2022-09-06T03:14:03.483Z,71.56
2022-09-06T03:15:03.155Z,71.26
2022-09-06T03:16:03.225Z,71.06
2022-09-06T03:17:03.897Z,71.16
2022-09-06T03:18:03.275Z,72.77
2022-09-06T03:19:03.310Z,72.77
2022-09-06T03:20:03.271Z,72.66
2022-09-06T03:21:03.358Z,72.66
2022-09-06T03:22:03.382Z,72.27
2022-09-06T03:23:03.591Z,72.47
2022-09-06T03:24:03.493Z,72.56
2022-09-06T03:25:03.278Z,72.60
2022-09-06T03:26:03.722Z,72.60
2022-09-06T03:27:03.163Z,72.00
2022-09-06T03:28:03.011Z,71.36
2022-09-06T03:29:02.971Z,71.46
2022-09-06T03:30:02.934Z,72.09
2022-09-06T03:31:03.152Z,71.50
2022-09-06T03:32:03.011Z,71.39
2022-09-06T03:33:03.376Z,71.30
2022-09-06T03:34:03.302Z,71.50
2022-09-06T03:35:03.241Z,71.59
2022-09-06T03:36:03.099Z,71.80
2022-09-06T03:37:03.166Z,71.50
2022-09-06T03:38:03.551Z,72.20
2022-09-06T03:39:03.335Z,74.40
2022-09-06T03:40:03.543Z,74.40
2022-09-06T03:41:03.205Z,73.80
2022-09-06T03:42:03.130Z,72.20
2022-09-06T03:43:03.722Z,73.50
2022-09-06T03:44:03.627Z,73.40
2022-09-06T03:45:03.705Z,72.30
2022-09-06T03:46:03.361Z,72.40
2022-09-06T03:47:03.296Z,72.03
2022-09-06T03:48:03.636Z,72.83
2022-09-06T03:49:03.637Z,73.33
2022-09-06T03:50:03.545Z,72.74
2022-09-06T03:51:03.494Z,72.24
2022-09-06T03:52:03.406Z,73.74
2022-09-06T03:53:04.010Z,73.44
2022-09-06T03:54:03.409Z,72.13
2022-09-06T03:55:03.360Z,71.93
2022-09-06T03:56:03.631Z,71.83
2022-09-06T03:57:02.635Z,71.66
2022-09-06T03:58:02.978Z,71.56
2022-09-06T03:59:02.903Z,71.66
2022-09-06T04:00:02.790Z,74.88
2022-09-06T04:01:02.655Z,75.78
2022-09-06T04:02:01.805Z,74.48
2022-09-06T04:03:02.041Z,74.68
2022-09-06T04:04:01.985Z,74.48
2022-09-06T04:05:01.872Z,73.77
2022-09-06T04:06:01.873Z,74.21
2022-09-06T04:07:02.010Z,73.10
2022-09-06T04:08:02.013Z,72.71
2022-09-06T04:09:02.195Z,72.30
2022-09-06T04:10:02.087Z,72.10
2022-09-06T04:11:01.967Z,71.90
2022-09-06T04:12:02.527Z,71.90
2022-09-06T04:13:02.410Z,72.00
2022-09-06T04:14:02.432Z,71.80
2022-09-06T04:15:02.450Z,72.20
2022-09-06T04:16:02.832Z,72.94
2022-09-06T04:17:01.809Z,74.11
2022-09-06T04:18:04.002Z,74.55
2022-09-06T04:19:01.955Z,74.04
2022-09-06T04:20:01.653Z,76.56
2022-09-06T04:21:02.266Z,77.26
2022-09-06T04:22:02.865Z,77.66
2022-09-06T04:23:02.644Z,76.25
2022-09-06T04:24:02.553Z,74.98
2022-09-06T04:25:02.465Z,74.48
2022-09-06T04:26:02.425Z,75.09
2022-09-06T04:27:02.574Z,74.68
2022-09-06T04:28:02.496Z,74.38
2022-09-06T04:29:02.320Z,74.78
2022-09-06T04:30:02.370Z,74.38
2022-09-06T04:31:04.939Z,74.58
2022-09-06T04:32:02.726Z,74.18
2022-09-06T04:33:02.763Z,74.48
2022-09-06T04:34:02.805Z,73.98
2022-09-06T04:35:02.769Z,75.42
2022-09-06T04:36:02.751Z,74.52
2022-09-06T04:37:02.819Z,74.21
2022-09-06T04:38:02.601Z,74.11
2022-09-06T04:39:02.598Z,74.41
2022-09-06T04:40:02.626Z,74.52
2022-09-06T04:41:02.621Z,74.21
2022-09-06T04:42:02.389Z,74.62
2022-09-06T04:43:02.442Z,74.32
2022-09-06T04:44:02.423Z,74.21
2022-09-06T04:45:02.411Z,74.11
2022-09-06T04:46:02.438Z,74.21
2022-09-06T04:47:07.447Z,74.65
2022-09-06T04:48:03.009Z,74.55
2022-09-06T04:49:03.127Z,74.65
2022-09-06T04:50:03.144Z,74.65
2022-09-06T04:51:03.179Z,74.75
2022-09-06T04:52:02.247Z,74.35
2022-09-06T04:53:02.265Z,74.45
2022-09-06T04:54:02.261Z,74.45
2022-09-06T04:55:02.134Z,74.55
2022-09-06T04:56:02.160Z,74.75
2022-09-06T04:57:02.882Z,78.27
2022-09-06T04:58:02.557Z,75.96
2022-09-06T04:59:02.673Z,75.96
2022-09-06T05:00:02.833Z,76.56
2022-09-06T05:01:03.205Z,76.36
2022-09-06T05:02:03.044Z,77.11
2022-09-06T05:03:02.865Z,76.70
2022-09-06T05:04:02.996Z,77.20
2022-09-06T05:05:03.088Z,77.81
2022-09-06T05:06:02.711Z,79.32
2022-09-06T05:07:03.569Z,77.81
2022-09-06T05:08:03.677Z,77.50
2022-09-06T05:09:03.477Z,78.51
2022-09-06T05:10:03.110Z,78.01
2022-09-06T05:11:03.134Z,77.70
2022-09-06T05:12:03.276Z,78.31
2022-09-06T05:13:03.404Z,78.01
2022-09-06T05:14:03.184Z,77.24
2022-09-06T05:15:03.217Z,77.55
2022-09-06T05:16:02.810Z,77.64
2022-09-06T05:17:03.737Z,77.44
2022-09-06T05:18:03.450Z,77.34
2022-09-06T05:19:03.592Z,78.15
2022-09-06T05:20:03.522Z,81.47
2022-09-06T05:21:03.218Z,78.65
2022-09-06T05:22:03.060Z,78.45
2022-09-06T05:23:03.023Z,79.66
2022-09-06T05:24:03.133Z,78.85
2022-09-06T05:25:02.929Z,78.35
2022-09-06T05:26:02.950Z,81.17
2022-09-06T05:27:03.581Z,81.77
2022-09-06T05:28:03.717Z,82.07
2022-09-06T05:29:03.447Z,80.46
2022-09-06T05:30:03.452Z,79.76
2022-09-06T05:31:03.745Z,79.05
2022-09-06T05:32:02.778Z,78.55
2022-09-06T05:33:02.901Z,78.96
2022-09-06T05:34:02.879Z,78.65
2022-09-06T05:35:02.599Z,78.45
2022-09-06T05:36:02.686Z,78.96
2022-09-06T05:37:03.336Z,78.35
2022-09-06T05:38:02.950Z,79.76
2022-09-06T05:39:03.465Z,78.65
2022-09-06T05:40:03.476Z,77.84
2022-09-06T05:41:03.422Z,77.55
2022-09-06T05:42:03.483Z,77.24
2022-09-06T05:43:03.524Z,77.04
2022-09-06T05:44:03.357Z,76.74
2022-09-06T05:45:03.431Z,77.64
2022-09-06T05:46:03.556Z,78.65
2022-09-06T05:47:03.104Z,78.55
2022-09-06T05:48:03.020Z,78.35
2022-09-06T05:49:03.102Z,79.05
2022-09-06T05:50:03.081Z,79.96
2022-09-06T05:51:02.951Z,79.96
2022-09-06T05:52:03.734Z,79.56
2022-09-06T05:53:03.492Z,80.46
2022-09-06T05:54:03.548Z,79.86
2022-09-06T05:55:03.154Z,79.76
2022-09-06T05:56:03.616Z,83.28
2022-09-06T05:57:02.785Z,80.36
2022-09-06T05:58:03.017Z,79.76
2022-09-06T05:59:03.123Z,80.57
2022-09-06T06:00:03.394Z,79.96
2022-09-06T06:01:03.393Z,80.16
2022-09-06T06:03:02.485Z,79.76
2022-09-06T06:04:02.507Z,79.86
2022-09-06T06:05:02.699Z,79.96
2022-09-06T06:06:02.498Z,79.16
2022-09-06T06:07:02.724Z,79.96
2022-09-06T06:08:02.617Z,78.81
2022-09-06T06:09:03.081Z,78.41
2022-09-06T06:10:03.168Z,78.01
2022-09-06T06:11:02.984Z,78.11
2022-09-06T06:12:03.056Z,78.61
2022-09-06T06:13:03.200Z,78.81
2022-09-06T06:14:03.410Z,79.99
2022-09-06T06:15:03.500Z,79.28
2022-09-06T06:16:03.584Z,78.78
2022-09-06T06:17:02.634Z,78.34
2022-09-06T06:18:02.578Z,78.23
2022-09-06T06:19:02.710Z,77.83
2022-09-06T06:20:02.785Z,77.83
2022-09-06T06:21:02.547Z,78.10
2022-09-06T06:22:03.290Z,77.50
2022-09-06T06:23:03.467Z,77.80
2022-09-06T06:24:03.639Z,77.90
2022-09-06T06:25:03.821Z,77.96
2022-09-06T06:26:03.215Z,77.86
2022-09-06T06:27:02.442Z,77.32
2022-09-06T06:28:02.895Z,77.62
2022-09-06T06:29:02.712Z,77.52
2022-09-06T06:30:02.433Z,77.39
2022-09-06T06:31:02.524Z,76.98
2022-09-06T06:32:02.569Z,76.34
2022-09-06T06:33:02.898Z,76.75
2022-09-06T06:34:02.913Z,76.65
2022-09-06T06:35:02.464Z,76.54
2022-09-06T06:36:02.625Z,76.34
2022-09-06T06:37:02.734Z,76.21
2022-09-06T06:38:02.810Z,76.01
2022-09-06T06:39:02.969Z,76.01
2022-09-06T06:40:03.021Z,75.91
2022-09-06T06:41:06.542Z,75.57
2022-09-06T06:42:03.126Z,75.47
2022-09-06T06:43:03.249Z,75.37
2022-09-06T06:44:03.231Z,75.47
2022-09-06T06:45:03.373Z,75.34
2022-09-06T06:46:03.604Z,74.73
2022-09-06T06:47:02.643Z,74.73
2022-09-06T06:48:03.028Z,74.63
2022-09-06T06:49:02.822Z,74.60
2022-09-06T06:50:02.901Z,74.60
2022-09-06T06:51:02.894Z,74.70
2022-09-06T06:52:02.993Z,74.00
2022-09-06T06:53:03.159Z,73.86
2022-09-06T06:54:03.169Z,73.86
2022-09-06T06:55:03.346Z,73.56
2022-09-06T06:56:03.398Z,73.66
2022-09-06T06:57:03.294Z,73.53
2022-09-06T06:58:03.429Z,73.53
2022-09-06T06:59:03.388Z,73.72
2022-09-06T07:00:03.075Z,73.22
2022-09-06T07:01:03.424Z,72.79
2022-09-06T07:02:03.130Z,72.89
2022-09-06T07:03:03.290Z,72.29
2022-09-06T07:04:02.818Z,72.39
2022-09-06T07:05:02.979Z,72.99
2022-09-06T07:08:02.817Z,72.76
2022-09-06T07:09:02.611Z,72.26
2022-09-06T07:11:02.746Z,72.52
2022-09-06T07:12:03.034Z,72.13
2022-09-06T07:13:03.182Z,71.29
2022-09-06T07:14:03.026Z,71.39
2022-09-06T07:15:02.910Z,71.29
2022-09-06T07:16:03.042Z,70.95
2022-09-06T07:17:07.410Z,70.65
2022-09-06T07:18:03.450Z,70.36
2022-09-06T07:19:03.437Z,70.53
2022-09-06T07:20:18.689Z,71.12
2022-09-06T07:22:04.612Z,69.69
2022-09-06T07:25:02.601Z,69.09
2022-09-06T07:26:02.584Z,69.86
2022-09-06T07:28:05.910Z,69.26
2022-09-06T07:29:02.789Z,68.37
2022-09-06T07:30:02.959Z,69.23
2022-09-06T07:31:02.986Z,68.53
2022-09-06T07:33:02.919Z,67.20
2022-09-06T07:34:02.953Z,67.80
2022-09-06T07:35:02.611Z,68.99
2022-09-06T07:36:02.672Z,67.30
2022-09-06T07:37:02.439Z,67.07
2022-09-06T07:38:02.435Z,67.57
2022-09-06T07:39:02.457Z,68.16
2022-09-06T07:40:02.654Z,67.93
2022-09-06T07:41:02.440Z,67.93
2022-09-06T07:42:02.594Z,67.44
2022-09-06T07:43:02.763Z,67.30
2022-09-06T07:44:02.667Z,67.70
2022-09-06T07:45:02.831Z,67.21
2022-09-06T07:46:02.690Z,66.38
2022-09-06T07:48:02.322Z,65.88
2022-09-06T07:49:02.462Z,65.09
2022-09-06T07:51:02.614Z,64.86
2022-09-06T07:53:12.949Z,66.05
2022-09-06T07:54:26.376Z,66.22
2022-09-06T07:55:03.154Z,64.83
2022-09-06T07:56:03.032Z,64.83
2022-09-06T07:57:03.171Z,64.13
2022-09-06T07:58:02.779Z,64.23
2022-09-06T07:59:03.193Z,63.80
2022-09-06T08:00:03.167Z,64.40
2022-09-06T08:01:03.453Z,65.19
2022-09-06T08:02:03.414Z,64.99
2022-09-06T08:03:02.910Z,64.86
2022-09-06T08:04:03.075Z,63.57
2022-09-06T08:05:03.241Z,64.76
2022-09-06T08:06:10.900Z,65.06
2022-09-06T08:09:03.172Z,63.34
2022-09-06T08:10:03.372Z,61.96
2022-09-06T08:11:03.387Z,61.86
2022-09-06T08:12:03.216Z,63.45
2022-09-06T08:13:03.300Z,63.21
2022-09-06T08:14:02.767Z,63.12
2022-09-06T08:15:02.787Z,64.40
2022-09-06T08:16:02.985Z,63.12
2022-09-06T08:17:02.913Z,61.80
2022-09-06T08:18:03.005Z,62.29
2022-09-06T08:19:02.508Z,61.30
2022-09-06T08:20:02.554Z,62.19
2022-09-06T08:21:02.583Z,61.47
2022-09-06T08:22:03.429Z,60.78
2022-09-06T08:23:03.533Z,60.08
2022-09-06T08:24:03.356Z,60.97
2022-09-06T08:25:03.424Z,59.79
2022-09-06T08:26:03.388Z,59.79
2022-09-06T08:27:03.834Z,58.97
2022-09-06T08:28:03.948Z,59.36
2022-09-06T08:29:03.671Z,60.55
2022-09-06T08:30:03.949Z,60.06
2022-09-06T08:31:03.973Z,59.86
2022-09-06T08:32:03.098Z,60.35
2022-09-06T08:33:02.732Z,59.53
2022-09-06T08:34:02.727Z,59.73
2022-09-06T08:35:02.855Z,58.84
2022-09-06T08:36:02.946Z,59.44
2022-09-06T08:37:03.684Z,59.73
2022-09-06T08:38:03.574Z,59.63
2022-09-06T08:39:03.691Z,60.13
2022-09-06T08:40:03.857Z,59.80
2022-09-06T08:41:03.448Z,59.31
2022-09-06T08:42:03.238Z,60.27
2022-09-06T08:43:03.005Z,59.67
2022-09-06T08:45:03.303Z,58.98
2022-09-06T08:46:03.012Z,58.65
2022-09-06T08:47:03.809Z,57.18
2022-09-06T08:48:03.695Z,57.07
2022-09-06T08:49:03.282Z,57.64
2022-09-06T08:50:03.458Z,58.04
2022-09-06T08:51:03.542Z,58.04
2022-09-06T08:52:02.714Z,57.34
2022-09-06T08:53:16.643Z,56.92
2022-09-06T08:54:03.309Z,57.32
2022-09-06T08:55:02.766Z,57.61
2022-09-06T08:56:02.860Z,56.90
2022-09-06T08:57:03.020Z,56.60
2022-09-06T08:58:03.543Z,56.40
2022-09-06T08:59:03.059Z,56.70
2022-09-06T09:00:03.108Z,55.51
2022-09-06T09:01:03.338Z,55.71
2022-09-06T09:02:02.222Z,55.51
2022-09-06T09:03:02.397Z,57.06
2022-09-06T09:04:02.539Z,56.67
2022-09-06T09:05:02.659Z,57.26
2022-09-06T09:06:02.786Z,55.39
2022-09-06T09:07:02.304Z,54.28
2022-09-06T09:08:02.358Z,54.08
2022-09-06T09:09:02.322Z,54.08
2022-09-06T09:10:02.449Z,56.54
2022-09-06T09:11:02.294Z,56.84
2022-09-06T09:12:02.406Z,56.62
2022-09-06T09:13:02.443Z,55.04
2022-09-06T09:14:02.557Z,53.47
2022-09-06T09:15:02.623Z,55.04
2022-09-06T09:16:02.620Z,54.64
2022-09-06T09:17:02.623Z,55.83
2022-09-06T09:18:02.923Z,52.36
2022-09-06T09:19:02.667Z,53.14
2022-09-06T09:20:02.810Z,53.34
2022-09-06T09:21:02.937Z,55.51
2022-09-06T09:22:02.982Z,53.83
2022-09-06T09:23:03.044Z,53.83
2022-09-06T09:24:03.192Z,52.33
2022-09-06T09:25:03.340Z,54.00
2022-09-06T09:26:03.612Z,55.58
2022-09-06T09:27:02.546Z,54.49
2022-09-06T09:28:02.613Z,55.08
2022-09-06T09:29:02.731Z,55.68
2022-09-06T09:31:03.052Z,54.96
2022-09-06T09:32:02.998Z,54.86
2022-09-06T09:33:03.320Z,52.70
2022-09-06T09:34:03.529Z,53.58
2022-09-06T09:35:03.415Z,54.05
2022-09-06T09:36:03.385Z,52.97
2022-09-06T09:38:07.826Z,54.54
2022-09-06T09:39:02.801Z,51.98
2022-09-06T09:40:02.972Z,51.67
2022-09-06T09:41:02.964Z,51.96
2022-09-06T09:42:03.233Z,50.88
2022-09-06T09:43:03.194Z,52.84
2022-09-06T09:44:04.956Z,53.04
2022-09-06T09:45:03.381Z,52.62
2022-09-06T09:46:03.494Z,52.03
2022-09-06T09:47:02.727Z,51.74
2022-09-06T09:48:02.625Z,51.84
2022-09-06T09:49:02.585Z,50.46
2022-09-06T09:50:02.704Z,50.46
2022-09-06T09:51:02.537Z,48.69
2022-09-06T09:52:03.255Z,49.29
2022-09-06T09:53:03.366Z,49.08
2022-09-06T09:54:03.517Z,48.69
2022-09-06T09:55:03.652Z,50.85
2022-09-06T09:56:03.129Z,49.77
2022-09-06T09:57:04.595Z,51.45
2022-09-06T09:58:02.721Z,50.27
2022-09-06T09:59:02.813Z,48.50
2022-09-06T10:00:03.432Z,49.08
2022-09-06T10:01:03.360Z,49.65
2022-09-06T10:02:03.295Z,49.16
2022-09-06T10:03:03.715Z,50.63
2022-09-06T10:05:03.652Z,51.03
2022-09-06T10:06:03.892Z,51.00
2022-09-06T10:07:10.444Z,49.53
2022-09-06T10:08:03.045Z,51.20
2022-09-06T10:09:03.178Z,48.35
2022-09-06T10:10:02.995Z,49.14
2022-09-06T10:11:02.827Z,48.85
2022-09-06T10:12:02.604Z,49.99
2022-09-06T10:13:02.844Z,50.88
2022-09-06T10:14:02.685Z,51.07
2022-09-06T10:15:06.900Z,50.95
2022-09-06T10:16:02.769Z,51.34
2022-09-06T10:17:02.855Z,50.85
2022-09-06T10:18:03.100Z,48.80
2022-09-06T10:19:02.847Z,47.52
2022-09-06T10:20:02.795Z,46.94
2022-09-06T10:21:02.963Z,47.62
2022-09-06T10:22:03.012Z,48.50
2022-09-06T10:23:03.150Z,49.48
2022-09-06T10:24:32.912Z,47.13
2022-09-06T10:25:03.328Z,48.97
2022-09-06T10:26:03.118Z,49.16
2022-09-06T10:27:03.183Z,48.09
2022-09-06T10:28:10.983Z,48.38
2022-09-06T10:29:03.091Z,49.63
2022-09-06T10:30:03.136Z,50.51
2022-09-06T10:31:03.316Z,45.32
2022-09-06T10:32:03.351Z,45.54
2022-09-06T10:33:03.343Z,47.11
2022-09-06T10:34:03.353Z,45.25
2022-09-06T10:35:03.103Z,46.72
2022-09-06T10:36:03.246Z,48.48
2022-09-06T10:37:03.036Z,48.07
2022-09-06T10:38:02.701Z,47.77
2022-09-06T10:39:04.102Z,46.59
2022-09-06T10:40:03.124Z,47.47
2022-09-06T10:41:02.841Z,48.55
2022-09-06T10:42:03.665Z,47.57
2022-09-06T10:43:03.763Z,48.26
2022-09-06T10:44:03.735Z,48.72
2022-09-06T10:45:03.879Z,48.04
2022-09-06T10:46:03.607Z,48.92
2022-09-06T10:47:03.389Z,48.04
2022-09-06T10:48:03.130Z,45.69
2022-09-06T10:49:03.223Z,48.11
2022-09-06T10:50:03.236Z,45.59
2022-09-06T10:51:03.250Z,45.47
2022-09-06T10:52:03.646Z,47.33
2022-09-06T10:53:03.739Z,45.57
2022-09-06T10:54:03.739Z,46.45
2022-09-06T10:55:03.863Z,46.28
2022-09-06T10:56:03.698Z,46.37
2022-09-06T10:57:03.656Z,47.06
2022-09-06T10:58:19.645Z,46.26
2022-09-06T11:00:03.235Z,47.14
2022-09-06T11:01:03.486Z,46.26
2022-09-06T11:02:02.942Z,46.14
2022-09-06T11:04:06.806Z,44.09
2022-09-06T11:06:02.470Z,44.69
2022-09-06T11:07:03.362Z,46.26
2022-09-06T11:09:02.917Z,48.09
2022-09-06T11:10:02.953Z,44.96
2022-09-06T11:11:02.917Z,44.87
2022-09-06T11:12:02.769Z,44.77
2022-09-06T11:13:02.258Z,46.43
2022-09-06T11:14:05.558Z,44.94
2022-09-06T11:15:02.432Z,43.77
2022-09-06T11:16:02.624Z,45.23
2022-09-06T11:17:03.297Z,46.21
2022-09-06T11:18:03.077Z,44.65
2022-09-06T11:19:03.047Z,44.55
2022-09-06T11:20:02.841Z,44.55
2022-09-06T11:21:03.369Z,43.38
2022-09-06T11:22:02.355Z,42.79
2022-09-06T11:23:03.005Z,44.16
2022-09-06T11:24:02.880Z,43.48
2022-09-06T11:25:02.872Z,44.35
2022-09-06T11:26:03.016Z,44.84
2022-09-06T11:27:02.932Z,43.38
2022-09-06T11:28:03.546Z,45.51
2022-09-06T11:29:03.307Z,45.21
2022-09-06T11:30:03.273Z,45.41
2022-09-06T11:31:03.447Z,45.12
2022-09-06T11:32:18.634Z,44.43
2022-09-06T11:33:03.092Z,44.43
2022-09-06T11:34:03.335Z,44.51
2022-09-06T11:35:03.489Z,45.29
2022-09-06T11:36:03.559Z,46.36
2022-09-06T11:37:03.526Z,46.24
2022-09-06T11:38:02.587Z,45.46
2022-09-06T11:39:02.686Z,45.54
2022-09-06T11:41:02.828Z,46.22
2022-09-06T11:42:02.962Z,44.54
2022-09-06T11:43:03.721Z,42.49
2022-09-06T11:44:03.657Z,42.02
2022-09-06T11:45:03.153Z,44.07
2022-09-06T11:46:03.298Z,42.02
2022-09-06T11:47:03.450Z,42.71
2022-09-06T11:48:03.233Z,42.54
2022-09-06T11:49:02.927Z,44.85
2022-09-06T11:50:03.091Z,44.76
2022-09-06T11:51:03.140Z,45.32
2022-09-06T11:52:02.863Z,46.10
2022-09-06T11:53:03.718Z,42.69
2022-09-06T11:54:03.789Z,43.85
2022-09-06T11:55:03.275Z,44.81
2022-09-06T11:56:03.425Z,44.32
2022-09-06T11:57:03.527Z,42.86
2022-09-06T11:58:03.319Z,44.52
2022-09-06T11:59:03.461Z,44.03
2022-09-06T12:00:03.275Z,44.98
2022-09-06T12:01:03.562Z,44.30
2022-09-06T12:02:03.450Z,43.04
2022-09-06T12:05:02.264Z,41.85
2022-09-06T12:06:02.477Z,43.70
2022-09-06T12:07:02.672Z,42.50
2022-09-06T12:08:02.737Z,40.39
2022-09-06T12:09:02.802Z,42.24
2022-09-06T12:10:02.467Z,41.46
2022-09-06T12:11:02.467Z,41.75
2022-09-06T12:12:02.598Z,41.65
2022-09-06T12:13:02.895Z,41.06
2022-09-06T12:14:03.010Z,42.65
2022-09-06T12:15:03.301Z,42.06
2022-09-06T12:16:03.627Z,41.77
2022-09-06T12:17:03.401Z,42.28
2022-09-06T12:18:03.617Z,41.99
2022-09-06T12:19:03.134Z,42.18
2022-09-06T12:20:03.650Z,41.61
2022-09-06T12:21:03.388Z,41.15
2022-09-06T12:22:03.491Z,41.56
2022-09-06T12:23:03.532Z,41.66
2022-09-06T12:24:03.650Z,43.32
2022-09-06T12:25:03.639Z,43.04
2022-09-06T12:26:03.182Z,43.04
2022-09-06T12:27:03.349Z,42.77
2022-09-06T12:28:03.152Z,43.07
2022-09-06T12:29:03.279Z,44.06
2022-09-06T12:30:03.089Z,44.06
2022-09-06T12:31:03.358Z,44.94
2022-09-06T12:32:03.031Z,44.94
2022-09-06T12:33:03.861Z,45.72
2022-09-06T12:34:03.673Z,42.81
2022-09-06T12:36:04.680Z,44.57
2022-09-06T12:37:03.422Z,45.06
2022-09-06T12:38:03.302Z,45.65
2022-09-06T12:39:03.067Z,44.57
2022-09-06T12:40:02.884Z,46.04
2022-09-06T12:41:03.128Z,45.08
2022-09-06T12:42:03.184Z,43.03
2022-09-06T12:43:03.405Z,44.62
2022-09-06T12:44:03.584Z,44.52
2022-09-06T12:45:03.759Z,44.91
2022-09-06T12:46:03.506Z,45.30
2022-09-06T12:47:03.422Z,46.67
2022-09-06T12:48:02.817Z,45.79
2022-09-06T12:49:03.118Z,46.59
2022-09-06T12:50:03.410Z,46.89
2022-09-06T12:51:02.643Z,47.28
2022-09-06T12:52:03.263Z,48.16
2022-09-06T12:53:03.535Z,48.77
2022-09-06T12:54:03.659Z,49.16
2022-09-06T12:55:03.709Z,49.26
2022-09-06T12:56:03.221Z,49.75
2022-09-06T12:57:03.573Z,50.04
2022-09-06T12:58:03.108Z,50.04
2022-09-06T12:59:03.327Z,49.46
2022-09-06T13:00:03.178Z,49.92
2022-09-06T13:01:03.333Z,50.32
2022-09-06T13:02:03.547Z,49.73
2022-09-06T13:03:02.926Z,49.90
2022-09-06T13:04:03.139Z,48.63
2022-09-06T13:05:03.262Z,48.99
2022-09-06T13:06:03.343Z,48.41
2022-09-06T13:07:02.820Z,45.97
2022-09-06T13:08:02.419Z,47.11
2022-09-06T13:09:02.071Z,46.60
2022-09-06T13:10:02.306Z,46.60
2022-09-06T13:11:01.936Z,43.96
2022-09-06T13:12:02.592Z,44.43
2022-09-06T13:13:02.480Z,44.63
2022-09-06T13:14:02.684Z,43.53
2022-09-06T13:15:02.853Z,43.14
2022-09-06T13:16:02.706Z,41.17
2022-09-06T13:17:02.724Z,42.14
2022-09-06T13:18:03.054Z,41.85